Time;durP1;ratioP1;P1;durP2;ratioP2;P2;SDS_P1;SDS_P2;PMS_P1;PMS_P2;Temp;Humidity;BMP_temperature;BMP_pressure;BME280_temperature;BME280_humidity;BME280_pressure;Samples;Min_cycle;Max_cycle;Signal;HPM_P1;HPM_P2
2021/11/29 00:00:55;;;;;;;;;;;;;;;;;;5095401;28;19916;-76
2021/11/29 00:03:28;;;;;;;;;;;;;;;;;;5095312;28;19928;-76
2021/11/29 00:05:53;;;;;;;;;;;;;;;;;;5095328;28;19958;-76
2021/11/29 00:08:18;;;;;;;;;;;;;;;;;;5095364;28;19955;-76
2021/11/29 00:10:44;;;;;;;;;;;;;;;;;;5093654;28;19919;-76
2021/11/29 00:13:09;;;;;;;;;;;;;;;;;;5094887;28;19970;-76
2021/11/29 00:15:35;;;;;;;;;;;;;;;;;;5095368;28;19970;-76
2021/11/29 00:18:02;;;;;;;;;;;;;;;;;;5094358;28;20007;-76
2021/11/29 00:20:27;;;;;;;;;;;;;;;;;;5097010;28;20288;-76
2021/11/29 00:22:53;;;;;;;;;;;;;;;;;;5097735;28;19979;-76
2021/11/29 00:25:18;;;;;;;;;;;;;;;;;;5097304;28;19920;-76
2021/11/29 00:27:44;;;;;;;;;;;;;;;;;;5097849;28;19943;-75
2021/11/29 00:30:10;;;;;;;;;;;;;;;;;;5096995;28;19916;-76
2021/11/29 00:32:37;;;;;;;;;;;;;;;;;;5097562;28;20755;-76
2021/11/29 00:35:02;;;;;;;;;;;;;;;;;;5096557;28;20010;-76
2021/11/29 00:37:28;;;;;;;;;;;;;;;;;;5096020;28;20356;-76
2021/11/29 00:39:54;;;;;;;;;;;;;;;;;;5096953;28;19923;-76
2021/11/29 00:42:19;;;;;;;;;;;;;;;;;;5096113;28;19916;-76
2021/11/29 00:44:44;;;;;;;;;;;;;;;;;;5095979;28;19920;-76
2021/11/29 00:47:10;;;;;;;;;;;;;;;;;;5095572;28;19961;-76
2021/11/29 00:49:35;;;;;;;;;;;;;;;;;;5096361;28;19912;-76
2021/11/29 00:52:01;;;;;;;;;;;;;;;;;;5095778;28;19959;-76
2021/11/29 00:54:26;;;;;;;;;;;;;;;;;;5095667;28;19939;-76
2021/11/29 00:56:51;;;;;;;;;;;;;;;;;;5095703;28;19971;-76
2021/11/29 00:59:17;;;;;;;;;;;;;;;;;;5094361;28;20397;-76
2021/11/29 01:01:44;;;;;;;;;;;;;;;;;;5094283;28;19927;-76
2021/11/29 01:04:09;;;;;;;;;;;;;;;;;;5095798;28;19920;-76
2021/11/29 01:06:35;;;;;;;;;;;;;;;;;;5094362;28;20281;-76
2021/11/29 01:09:00;;;;;;;;;;;;;;;;;;5096430;28;19920;-76
2021/11/29 01:11:25;;;;;;;;;;;;;;;;;;5096189;28;19920;-76
2021/11/29 01:13:51;;;;;;;;;;;;;;;;;;5095528;28;20003;-76
2021/11/29 01:16:16;;;;;;;;;;;;;;;;;;5095860;28;19926;-76
2021/11/29 01:18:41;;;;;;;;;;;;;;;;;;5095309;28;19970;-75
2021/11/29 01:21:07;;;;;;;;;;;;;;;;;;5095101;28;20015;-76
2021/11/29 01:23:32;;;;;;;;;;;;;;;;;;5093990;28;19920;-75
2021/11/29 01:25:58;;;;;;;;;;;;;;;;;;5093910;28;19916;-76
2021/11/29 01:28:23;;;;;;;;;;;;;;;;;;5095209;28;19916;-75
2021/11/29 01:30:49;;;;;;;;;;;;;;;;;;5095440;28;19941;-75
2021/11/29 01:33:14;;;;;;;;;;;;;;;;;;5093757;28;19916;-76
2021/11/29 01:35:39;;;;;;;;;;;;;;;;;;5074515;28;20366;-76
2021/11/29 01:38:05;;;;;;;;;;;;;;;;;;5089373;28;19923;-76
2021/11/29 01:40:30;;;;;;;;;;;;;;;;;;5093942;28;19969;-76
2021/11/29 01:43:15;;;;;;;;;;;;;;;;;;5093825;28;19960;-76
2021/11/29 01:45:42;;;;;;;;;;;;;;;;;;5093767;28;19926;-77
2021/11/29 01:48:08;;;;;;;;;;;;;;;;;;5094601;28;19942;-76
2021/11/29 01:50:33;;;;;;;;;;;;;;;;;;5095657;28;20303;-76
2021/11/29 01:52:59;;;;;;;;;;;;;;;;;;5095711;28;19916;-76
2021/11/29 01:55:24;;;;;;;;;;;;;;;;;;5095883;28;19962;-76
2021/11/29 01:57:50;;;;;;;;;;;;;;;;;;5096512;28;20019;-76
2021/11/29 02:00:20;;;;;;;;;;;;;;;;;;5078227;28;19976;-76
2021/11/29 02:02:50;;;;;;;;;;;;;;;;;;5096686;28;20012;-76
2021/11/29 02:05:15;;;;;;;;;;;;;;;;;;5094937;28;19970;-75
2021/11/29 02:07:41;;;;;;;;;;;;;;;;;;5095248;28;19916;-76
2021/11/29 02:10:07;;;;;;;;;;;;;;;;;;5078404;28;19924;-76
2021/11/29 02:12:32;;;;;;;;;;;;;;;;;;5096738;28;19916;-76
2021/11/29 02:14:57;;;;;;;;;;;;;;;;;;5096826;28;19923;-75
2021/11/29 02:17:23;;;;;;;;;;;;;;;;;;5095194;28;19916;-75
2021/11/29 02:19:48;;;;;;;;;;;;;;;;;;5094148;28;19961;-75
2021/11/29 02:22:13;;;;;;;;;;;;;;;;;;5094796;28;20374;-75
2021/11/29 02:24:39;;;;;;;;;;;;;;;;;;5094499;28;19921;-75
2021/11/29 02:27:05;;;;;;;;;;;;;;;;;;5095672;28;20014;-74
2021/11/29 02:29:31;;;;;;;;;;;;;;;;;;5097173;28;19916;-74
2021/11/29 02:31:56;;;;;;;;;;;;;;;;;;5097321;28;19939;-74
2021/11/29 02:34:23;;;;;;;;;;;;;;;;;;5098401;28;19970;-75
2021/11/29 02:36:49;;;;;;;;;;;;;;;;;;5098365;28;19916;-75
2021/11/29 02:39:15;;;;;;;;;;;;;;;;;;5098726;28;19961;-75
2021/11/29 02:41:42;;;;;;;;;;;;;;;;;;5098061;28;19916;-75
2021/11/29 02:44:07;;;;;;;;;;;;;;;;;;5096296;28;19920;-75
2021/11/29 02:46:33;;;;;;;;;;;;;;;;;;5097474;28;19923;-75
2021/11/29 02:49:00;;;;;;;;;;;;;;;;;;5097345;28;19922;-74
2021/11/29 02:51:25;;;;;;;;;;;;;;;;;;5097462;28;20330;-74
2021/11/29 02:53:52;;;;;;;;;;;;;;;;;;5096169;28;19963;-74
2021/11/29 02:56:18;;;;;;;;;;;;;;;;;;5096099;28;19922;-74
2021/11/29 02:58:43;;;;;;;;;;;;;;;;;;5097856;28;20440;-75
2021/11/29 03:01:08;;;;;;;;;;;;;;;;;;5098041;28;19916;-76
2021/11/29 03:03:43;;;;;;;;;;;;;;;;;;5097644;28;20404;-75
2021/11/29 03:06:08;;;;;;;;;;;;;;;;;;5098344;28;19968;-75
2021/11/29 03:08:33;;;;;;;;;;;;;;;;;;5097021;28;19919;-76
2021/11/29 03:10:58;;;;;;;;;;;;;;;;;;5097907;28;19916;-75
2021/11/29 03:13:24;;;;;;;;;;;;;;;;;;5097619;28;19912;-76
2021/11/29 03:15:49;;;;;;;;;;;;;;;;;;5099604;28;19916;-77
2021/11/29 03:18:14;;;;;;;;;;;;;;;;;;5097531;28;19916;-76
2021/11/29 03:20:42;;;;;;;;;;;;;;;;;;5096165;28;19974;-76
2021/11/29 03:23:11;;;;;;;;;;;;;;;;;;5098355;28;19923;-77
2021/11/29 03:25:36;;;;;;;;;;;;;;;;;;5098754;28;19978;-76
2021/11/29 03:28:02;;;;;;;;;;;;;;;;;;5098083;28;19916;-77
2021/11/29 03:30:27;;;;;;;;;;;;;;;;;;5097531;28;19916;-76
2021/11/29 03:32:52;;;;;;;;;;;;;;;;;;5097578;28;19916;-76
2021/11/29 03:35:17;;;;;;;;;;;;;;;;;;5097399;28;19961;-77
2021/11/29 03:37:43;;;;;;;;;;;;;;;;;;5079422;28;19942;-77
2021/11/29 03:40:08;;;;;;;;;;;;;;;;;;5097646;28;19916;-77
2021/11/29 03:42:34;;;;;;;;;;;;;;;;;;5098180;28;19916;-77
2021/11/29 03:45:00;;;;;;;;;;;;;;;;;;5096769;28;19927;-77
2021/11/29 03:47:26;;;;;;;;;;;;;;;;;;5097401;28;19916;-77
2021/11/29 03:49:51;;;;;;;;;;;;;;;;;;5096263;28;19922;-77
2021/11/29 03:52:16;;;;;;;;;;;;;;;;;;5095534;28;20007;-76
2021/11/29 03:54:48;;;;;;;;;;;;;;;;;;5097542;28;19992;-78
2021/11/29 03:57:13;;;;;;;;;;;;;;;;;;5101303;28;19916;-78
2021/11/29 03:59:38;;;;;;;;;;;;;;;;;;5105899;28;19912;-78
2021/11/29 04:02:04;;;;;;;;;;;;;;;;;;5108089;28;19917;-78
2021/11/29 04:04:29;;;;;;;;;;;;;;;;;;5119334;28;19919;-78
2021/11/29 04:06:55;;;;;;;;;;;;;;;;;;5129837;28;20305;-78
2021/11/29 04:09:20;;;;;;;;;;;;;;;;;;5129510;28;19916;-78
2021/11/29 04:11:45;;;;;;;;;;;;;;;;;;5126409;28;20125;-78
2021/11/29 04:14:10;;;;;;;;;;;;;;;;;;5126830;28;19916;-78
2021/11/29 04:16:36;;;;;;;;;;;;;;;;;;5125886;28;20014;-78
2021/11/29 04:19:03;;;;;;;;;;;;;;;;;;5123909;28;19916;-78
2021/11/29 04:21:28;;;;;;;;;;;;;;;;;;5125361;28;20366;-78
2021/11/29 04:23:53;;;;;;;;;;;;;;;;;;5123708;28;19924;-78
2021/11/29 04:26:19;;;;;;;;;;;;;;;;;;5125284;28;19923;-78
2021/11/29 04:28:45;;;;;;;;;;;;;;;;;;5124771;28;19916;-78
2021/11/29 04:31:10;;;;;;;;;;;;;;;;;;5123880;28;19919;-78
2021/11/29 04:33:36;;;;;;;;;;;;;;;;;;5123752;28;20414;-78
2021/11/29 04:36:01;;;;;;;;;;;;;;;;;;5122672;28;19916;-78
2021/11/29 04:38:26;;;;;;;;;;;;;;;;;;5119995;28;19963;-78
2021/11/29 04:40:52;;;;;;;;;;;;;;;;;;5082842;28;19917;-78
2021/11/29 04:43:17;;;;;;;;;;;;;;;;;;5082191;28;19912;-78
2021/11/29 04:45:43;;;;;;;;;;;;;;;;;;5081972;28;20469;-78
2021/11/29 04:48:08;;;;;;;;;;;;;;;;;;5081960;28;19969;-78
2021/11/29 04:50:33;;;;;;;;;;;;;;;;;;5081615;28;19917;-78
2021/11/29 04:52:59;;;;;;;;;;;;;;;;;;5080474;28;19958;-78
2021/11/29 04:55:24;;;;;;;;;;;;;;;;;;5083707;28;20003;-78
2021/11/29 04:57:49;;;;;;;;;;;;;;;;;;5086380;28;20366;-78
2021/11/29 05:00:16;;;;;;;;;;;;;;;;;;5084986;28;19916;-78
2021/11/29 05:02:41;;;;;;;;;;;;;;;;;;5080099;28;19916;-77
2021/11/29 05:05:06;;;;;;;;;;;;;;;;;;5075390;28;19927;-77
2021/11/29 05:07:32;;;;;;;;;;;;;;;;;;5075661;28;20021;-77
2021/11/29 05:09:57;;;;;;;;;;;;;;;;;;5086656;28;19970;-77
2021/11/29 05:12:23;;;;;;;;;;;;;;;;;;5096410;28;19967;-77
2021/11/29 05:14:48;;;;;;;;;;;;;;;;;;5099123;28;19916;-77
2021/11/29 05:17:18;;;;;;;;;;;;;;;;;;5100632;28;20321;-78
2021/11/29 05:19:44;;;;;;;;;;;;;;;;;;5100737;28;19987;-77
2021/11/29 05:22:09;;;;;;;;;;;;;;;;;;5104456;28;19938;-78
2021/11/29 05:24:35;;;;;;;;;;;;;;;;;;5104497;28;19916;-78
2021/11/29 05:27:00;;;;;;;;;;;;;;;;;;5106338;28;19923;-78
2021/11/29 05:29:26;;;;;;;;;;;;;;;;;;5106518;28;19920;-78
2021/11/29 05:31:52;;;;;;;;;;;;;;;;;;5111954;28;19923;-78
2021/11/29 05:34:18;;;;;;;;;;;;;;;;;;5109431;28;19919;-78
2021/11/29 05:36:43;;;;;;;;;;;;;;;;;;5108337;28;19916;-78
2021/11/29 05:39:09;;;;;;;;;;;;;;;;;;5108185;28;19923;-78
2021/11/29 05:41:34;;;;;;;;;;;;;;;;;;5108346;28;20377;-78
2021/11/29 05:43:59;;;;;;;;;;;;;;;;;;5107174;28;20007;-78
2021/11/29 05:46:25;;;;;;;;;;;;;;;;;;5106409;28;19962;-78
2021/11/29 05:48:51;;;;;;;;;;;;;;;;;;5105188;28;20377;-78
2021/11/29 05:51:16;;;;;;;;;;;;;;;;;;5106142;28;19919;-78
2021/11/29 05:53:42;;;;;;;;;;;;;;;;;;5086515;28;19916;-78
2021/11/29 05:56:08;;;;;;;;;;;;;;;;;;5105971;28;19920;-78
2021/11/29 05:58:34;;;;;;;;;;;;;;;;;;5105959;28;19916;-78
2021/11/29 06:00:59;;;;;;;;;;;;;;;;;;5108080;28;19916;-78
2021/11/29 06:03:25;;;;;;;;;;;;;;;;;;5109356;28;20349;-78
2021/11/29 06:05:50;;;;;;;;;;;;;;;;;;5106602;28;19916;-78
2021/11/29 06:08:16;;;;;;;;;;;;;;;;;;5108878;28;19939;-78
2021/11/29 06:10:41;;;;;;;;;;;;;;;;;;5108575;28;19923;-78
2021/11/29 06:13:06;;;;;;;;;;;;;;;;;;5108811;28;19920;-78
2021/11/29 06:15:32;;;;;;;;;;;;;;;;;;5110153;28;20003;-78
2021/11/29 06:17:58;;;;;;;;;;;;;;;;;;5109695;28;19920;-78
2021/11/29 06:20:23;;;;;;;;;;;;;;;;;;5109108;28;19962;-78
2021/11/29 06:22:50;;;;;;;;;;;;;;;;;;5108103;28;19916;-77
2021/11/29 06:25:15;;;;;;;;;;;;;;;;;;5108490;28;20323;-78
2021/11/29 06:27:41;;;;;;;;;;;;;;;;;;5107944;28;20019;-78
2021/11/29 06:30:06;;;;;;;;;;;;;;;;;;5107491;28;19916;-78
2021/11/29 06:32:31;;;;;;;;;;;;;;;;;;5107625;28;19916;-78
2021/11/29 06:34:57;;;;;;;;;;;;;;;;;;5108813;28;19915;-77
2021/11/29 06:37:25;;;;;;;;;;;;;;;;;;5107057;28;20281;-77
2021/11/29 06:39:51;;;;;;;;;;;;;;;;;;5107217;28;20553;-77
2021/11/29 06:42:16;;;;;;;;;;;;;;;;;;5106131;28;19923;-78
2021/11/29 06:44:41;;;;;;;;;;;;;;;;;;5107132;28;19931;-77
2021/11/29 06:47:07;;;;;;;;;;;;;;;;;;5106401;28;20396;-77
2021/11/29 06:49:32;;;;;;;;;;;;;;;;;;5110255;28;19951;-77
2021/11/29 06:52:02;;;;;;;;;;;;;;;;;;5097612;28;19920;-78
2021/11/29 06:54:28;;;;;;;;;;;;;;;;;;5105719;28;19943;-77
2021/11/29 06:56:53;;;;;;;;;;;;;;;;;;5105126;28;20290;-78
2021/11/29 06:59:19;;;;;;;;;;;;;;;;;;5110764;28;19916;-78
2021/11/29 07:01:45;;;;;;;;;;;;;;;;;;5113969;28;19923;-78
2021/11/29 07:04:10;;;;;;;;;;;;;;;;;;5109524;28;19941;-78
2021/11/29 07:06:35;;;;;;;;;;;;;;;;;;5105664;28;19922;-77
2021/11/29 07:09:01;;;;;;;;;;;;;;;;;;5100355;28;19923;-77
2021/11/29 07:11:26;;;;;;;;;;;;;;;;;;5102357;28;19927;-78
2021/11/29 07:13:52;;;;;;;;;;;;;;;;;;5101851;28;20346;-78
2021/11/29 07:16:17;;;;;;;;;;;;;;;;;;5100674;28;20006;-77
2021/11/29 07:18:42;;;;;;;;;;;;;;;;;;5102726;28;19920;-78
2021/11/29 07:21:09;;;;;;;;;;;;;;;;;;5099676;28;19912;-77
2021/11/29 07:23:35;;;;;;;;;;;;;;;;;;5098848;28;20011;-78
2021/11/29 07:26:00;;;;;;;;;;;;;;;;;;5102456;28;19970;-77
2021/11/29 07:28:26;;;;;;;;;;;;;;;;;;5098690;28;19986;-79
2021/11/29 07:30:51;;;;;;;;;;;;;;;;;;5099498;28;19916;-78
2021/11/29 07:33:16;;;;;;;;;;;;;;;;;;5100415;28;19916;-78
2021/11/29 07:35:42;;;;;;;;;;;;;;;;;;5100426;28;19920;-78
2021/11/29 07:38:07;;;;;;;;;;;;;;;;;;5097640;28;19923;-77
2021/11/29 07:40:33;;;;;;;;;;;;;;;;;;5096320;28;19955;-77
2021/11/29 07:43:00;;;;;;;;;;;;;;;;;;5096176;28;19916;-77
2021/11/29 07:45:26;;;;;;;;;;;;;;;;;;5094751;28;19926;-76
2021/11/29 07:47:51;;;;;;;;;;;;;;;;;;5095624;28;20292;-76
2021/11/29 07:50:17;;;;;;;;;;;;;;;;;;5114966;28;19920;-76
2021/11/29 07:52:43;;;;;;;;;;;;;;;;;;5114995;28;20023;-76
2021/11/29 07:55:11;;;;;;;;;;;;;;;;;;5115300;28;19961;-79
2021/11/29 07:57:36;;;;;;;;;;;;;;;;;;5116895;28;19916;-77
2021/11/29 08:00:06;;;;;;;;;;;;;;;;;;5116219;28;19939;-75
2021/11/29 08:02:32;;;;;;;;;;;;;;;;;;5114888;28;19972;-75
2021/11/29 08:04:57;;;;;;;;;;;;;;;;;;5116101;28;20438;-76
2021/11/29 08:07:22;;;;;;;;;;;;;;;;;;5115430;28;19920;-77
2021/11/29 08:09:48;;;;;;;;;;;;;;;;;;5115819;28;19915;-76
2021/11/29 08:12:13;;;;;;;;;;;;;;;;;;5115980;28;20006;-77
2021/11/29 08:14:39;;;;;;;;;;;;;;;;;;5116193;28;19920;-76
2021/11/29 08:17:04;;;;;;;;;;;;;;;;;;5115614;28;20284;-77
2021/11/29 08:19:29;;;;;;;;;;;;;;;;;;5099073;28;19916;-76
2021/11/29 08:21:55;;;;;;;;;;;;;;;;;;5096256;28;20390;-78
2021/11/29 08:24:20;;;;;;;;;;;;;;;;;;5096499;28;20282;-77
2021/11/29 08:26:45;;;;;;;;;;;;;;;;;;5095354;28;19922;-77
2021/11/29 08:29:11;;;;;;;;;;;;;;;;;;5094816;28;19916;-77
2021/11/29 08:31:36;;;;;;;;;;;;;;;;;;5093752;28;19920;-76
2021/11/29 08:34:03;;;;;;;;;;;;;;;;;;5093901;28;19923;-76
2021/11/29 08:36:28;;;;;;;;;;;;;;;;;;5094786;28;19916;-75
2021/11/29 08:38:53;;;;;;;;;;;;;;;;;;5094638;28;19942;-75
2021/11/29 08:41:19;;;;;;;;;;;;;;;;;;5093470;28;19916;-77
2021/11/29 08:43:44;;;;;;;;;;;;;;;;;;5094870;28;19920;-77
2021/11/29 08:46:09;;;;;;;;;;;;;;;;;;5077397;28;19990;-77
2021/11/29 08:48:35;;;;;;;;;;;;;;;;;;5094455;28;19923;-78
2021/11/29 08:51:00;;;;;;;;;;;;;;;;;;5094914;28;19916;-76
2021/11/29 08:53:26;;;;;;;;;;;;;;;;;;5076240;28;20010;-76
2021/11/29 08:55:52;;;;;;;;;;;;;;;;;;5074481;28;19939;-76
2021/11/29 08:58:17;;;;;;;;;;;;;;;;;;5073092;28;20347;-76
2021/11/29 09:00:44;;;;;;;;;;;;;;;;;;5074236;28;19917;-76
2021/11/29 09:03:11;;;;;;;;;;;;;;;;;;5075792;28;20455;-76
2021/11/29 09:05:37;;;;;;;;;;;;;;;;;;5112813;28;19920;-77
2021/11/29 09:08:03;;;;;;;;;;;;;;;;;;5113619;28;20384;-76
2021/11/29 09:10:28;;;;;;;;;;;;;;;;;;5101328;28;19916;-76
2021/11/29 09:12:54;;;;;;;;;;;;;;;;;;5093932;28;19916;-75
2021/11/29 09:15:20;;;;;;;;;;;;;;;;;;5093657;28;20003;-77
2021/11/29 09:17:46;;;;;;;;;;;;;;;;;;5097667;28;19923;-77
2021/11/29 09:20:14;;;;;;;;;;;;;;;;;;5103789;28;20008;-76
2021/11/29 09:22:41;;;;;;;;;;;;;;;;;;5102239;28;20011;-76
2021/11/29 09:25:07;;;;;;;;;;;;;;;;;;5117176;28;19920;-78
2021/11/29 09:27:33;;;;;;;;;;;;;;;;;;5117103;28;19922;-79
2021/11/29 09:29:58;;;;;;;;;;;;;;;;;;5114172;28;20376;-78
2021/11/29 09:32:23;;;;;;;;;;;;;;;;;;5114634;28;19922;-77
2021/11/29 09:34:49;;;;;;;;;;;;;;;;;;5098190;28;19916;-77
2021/11/29 09:37:16;;;;;;;;;;;;;;;;;;5095056;28;20007;-77
2021/11/29 09:39:41;;;;;;;;;;;;;;;;;;5092305;28;19916;-77
2021/11/29 09:42:06;;;;;;;;;;;;;;;;;;5092525;28;20013;-78
2021/11/29 09:44:32;;;;;;;;;;;;;;;;;;5104956;28;19920;-79
2021/11/29 09:46:59;;;;;;;;;;;;;;;;;;5109697;28;21279;-79
2021/11/29 09:49:28;;;;;;;;;;;;;;;;;;5109904;28;19920;-78
2021/11/29 09:51:53;;;;;;;;;;;;;;;;;;5108646;28;19924;-79
2021/11/29 09:54:18;;;;;;;;;;;;;;;;;;5107171;28;20020;-79
2021/11/29 09:56:44;;;;;;;;;;;;;;;;;;5107654;28;19938;-79
2021/11/29 09:59:10;;;;;;;;;;;;;;;;;;5109212;28;19923;-78
2021/11/29 10:01:35;;;;;;;;;;;;;;;;;;5109139;28;19916;-78
2021/11/29 10:04:02;;;;;;;;;;;;;;;;;;5107073;28;19920;-78
2021/11/29 10:06:27;;;;;;;;;;;;;;;;;;5105788;28;20274;-79
2021/11/29 10:08:53;;;;;;;;;;;;;;;;;;5106514;28;19973;-78
2021/11/29 10:11:19;;;;;;;;;;;;;;;;;;5106620;28;19916;-79
2021/11/29 10:13:47;;;;;;;;;;;;;;;;;;5103971;28;19916;-78
2021/11/29 10:16:27;;;;;;;;;;;;;;;;;;5104896;28;19923;-78
2021/11/29 10:18:52;;;;;;;;;;;;;;;;;;5103838;28;20010;-78
2021/11/29 10:21:19;;;;;;;;;;;;;;;;;;5106584;28;19916;-78
2021/11/29 10:23:49;;;;;;;;;;;;;;;;;;5103655;28;19987;-78
2021/11/29 10:26:18;;;;;;;;;;;;;;;;;;5104299;28;19916;-79
2021/11/29 10:28:48;;;;;;;;;;;;;;;;;;5103352;28;20267;-79
2021/11/29 10:31:19;;;;;;;;;;;;;;;;;;5101179;28;20057;-79
2021/11/29 10:33:44;;;;;;;;;;;;;;;;;;5102889;28;19986;-79
2021/11/29 10:36:11;;;;;;;;;;;;;;;;;;5089654;28;19923;-79
2021/11/29 10:38:40;;;;;;;;;;;;;;;;;;5084987;28;19921;-79
2021/11/29 10:41:07;;;;;;;;;;;;;;;;;;5087829;28;19940;-79
2021/11/29 10:43:39;;;;;;;;;;;;;;;;;;5088025;28;19917;-79
2021/11/29 10:46:23;;;;;;;;;;;;;;;;;;5088075;28;20063;-79
2021/11/29 10:48:50;;;;;;;;;;;;;;;;;;5100211;28;19927;-79
2021/11/29 10:51:17;;;;;;;;;;;;;;;;;;5111941;28;19938;-79
2021/11/29 10:53:50;;;;;;;;;;;;;;;;;;5111329;28;20410;-79
2021/11/29 10:56:16;;;;;;;;;;;;;;;;;;5110824;28;19920;-79
2021/11/29 10:58:42;;;;;;;;;;;;;;;;;;5105159;28;19916;-79
2021/11/29 11:01:07;;;;;;;;;;;;;;;;;;5098959;28;19943;-79
2021/11/29 11:03:49;;;;;;;;;;;;;;;;;;5097191;28;19923;-78
2021/11/29 11:06:14;;;;;;;;;;;;;;;;;;5097059;28;19976;-78
2021/11/29 11:08:40;;;;;;;;;;;;;;;;;;5104707;28;19974;-79
2021/11/29 11:11:24;;;;;;;;;;;;;;;;;;5106285;28;19923;-79
2021/11/29 11:13:59;;;;;;;;;;;;;;;;;;5101927;28;19926;-82
2021/11/29 11:16:43;;;;;;;;;;;;;;;;;;5100864;28;19923;-78
2021/11/29 11:19:09;;;;;;;;;;;;;;;;;;5107117;28;19973;-77
2021/11/29 11:21:35;;;;;;;;;;;;;;;;;;5101275;28;19912;-78
2021/11/29 11:24:20;;;;;;;;;;;;;;;;;;5098546;28;19923;-78
2021/11/29 11:26:46;;;;;;;;;;;;;;;;;;5098293;28;19924;-79
2021/11/29 11:29:12;;;;;;;;;;;;;;;;;;5106959;28;19916;-80
2021/11/29 11:31:38;;;;;;;;;;;;;;;;;;5103609;28;20312;-79
2021/11/29 11:34:03;;;;;;;;;;;;;;;;;;5103609;28;19916;-77
2021/11/29 11:36:28;;;;;;;;;;;;;;;;;;5125918;28;19915;-79
2021/11/29 11:38:55;;;;;;;;;;;;;;;;;;5123101;28;19916;-80
2021/11/29 11:41:21;;;;;;;;;;;;;;;;;;5122929;28;19916;-79
2021/11/29 11:43:47;;;;;;;;;;;;;;;;;;5104393;28;19924;-79
2021/11/29 11:46:12;;;;;;;;;;;;;;;;;;5124887;28;19920;-80
2021/11/29 11:48:37;;;;;;;;;;;;;;;;;;5122348;28;19916;-82
2021/11/29 11:51:03;;;;;;;;;;;;;;;;;;5119800;28;20403;-80
2021/11/29 11:53:28;;;;;;;;;;;;;;;;;;5082677;28;19916;-81
2021/11/29 11:55:54;;;;;;;;;;;;;;;;;;5080605;28;19916;-80
2021/11/29 11:58:21;;;;;;;;;;;;;;;;;;5084269;28;20344;-81
2021/11/29 12:00:58;;;;;;;;;;;;;;;;;;5078107;28;19920;-79
2021/11/29 12:03:26;;;;;;;;;;;;;;;;;;5077470;28;19917;-79
2021/11/29 12:05:51;;;;;;;;;;;;;;;;;;5082288;28;19916;-78
2021/11/29 12:08:35;;;;;;;;;;;;;;;;;;5100068;28;20388;-79
2021/11/29 12:11:03;;;;;;;;;;;;;;;;;;5101278;28;19923;-79
2021/11/29 12:13:39;;;;;;;;;;;;;;;;;;5102217;28;19962;-79
2021/11/29 12:16:08;;;;;;;;;;;;;;;;;;5101964;28;20011;-79
2021/11/29 12:18:33;;;;;;;;;;;;;;;;;;5100869;28;19919;-79
2021/11/29 12:21:16;;;;;;;;;;;;;;;;;;5100529;28;19916;-78
2021/11/29 12:23:44;;;;;;;;;;;;;;;;;;5100116;28;19920;-78
2021/11/29 12:26:09;;;;;;;;;;;;;;;;;;5099880;28;20374;-79
2021/11/29 12:28:37;;;;;;;;;;;;;;;;;;5099658;28;19930;-78
2021/11/29 12:31:02;;;;;;;;;;;;;;;;;;5100277;28;20340;-78
2021/11/29 12:33:41;;;;;;;;;;;;;;;;;;5098501;28;19961;-79
2021/11/29 12:36:07;;;;;;;;;;;;;;;;;;5099270;28;19920;-78
2021/11/29 12:38:44;;;;;;;;;;;;;;;;;;5099568;28;19922;-79
2021/11/29 12:41:09;;;;;;;;;;;;;;;;;;5097152;28;19923;-79
2021/11/29 12:43:38;;;;;;;;;;;;;;;;;;5098612;28;19916;-79
2021/11/29 12:46:14;;;;;;;;;;;;;;;;;;5098512;28;20018;-79
2021/11/29 12:48:40;;;;;;;;;;;;;;;;;;5098074;28;19920;-78
2021/11/29 12:51:06;;;;;;;;;;;;;;;;;;5097319;28;19927;-78
2021/11/29 12:53:38;;;;;;;;;;;;;;;;;;5098540;28;19923;-79
2021/11/29 12:56:03;;;;;;;;;;;;;;;;;;5098987;28;19916;-79
2021/11/29 12:58:29;;;;;;;;;;;;;;;;;;5098406;28;19920;-78
2021/11/29 13:01:13;;;;;;;;;;;;;;;;;;5098200;28;19969;-78
2021/11/29 13:03:57;;;;;;;;;;;;;;;;;;5102730;28;19969;-78
2021/11/29 13:06:28;;;;;;;;;;;;;;;;;;5118433;28;19919;-78
2021/11/29 13:08:58;;;;;;;;;;;;;;;;;;5118384;28;19915;-78
2021/11/29 13:11:25;;;;;;;;;;;;;;;;;;5118245;28;19916;-79
2021/11/29 13:13:53;;;;;;;;;;;;;;;;;;5117453;28;19923;-78
2021/11/29 13:16:24;;;;;;;;;;;;;;;;;;5118465;28;20431;-78
2021/11/29 13:18:53;;;;;;;;;;;;;;;;;;5116757;28;20057;-78
2021/11/29 13:21:24;;;;;;;;;;;;;;;;;;5118262;28;20006;-78
2021/11/29 13:23:52;;;;;;;;;;;;;;;;;;5117494;28;19916;-79
2021/11/29 13:26:19;;;;;;;;;;;;;;;;;;5117671;28;20372;-77
2021/11/29 13:28:48;;;;;;;;;;;;;;;;;;5115219;28;20521;-76
2021/11/29 13:31:14;;;;;;;;;;;;;;;;;;5115875;28;19916;-77
2021/11/29 13:33:40;;;;;;;;;;;;;;;;;;5110781;28;20015;-80
2021/11/29 13:36:07;;;;;;;;;;;;;;;;;;5097900;28;19959;-78
2021/11/29 13:38:32;;;;;;;;;;;;;;;;;;5097958;28;19916;-79
2021/11/29 13:40:57;;;;;;;;;;;;;;;;;;5096001;28;20289;-80
2021/11/29 13:43:24;;;;;;;;;;;;;;;;;;5097309;28;19916;-76
2021/11/29 13:45:49;;;;;;;;;;;;;;;;;;5096101;28;19920;-78
2021/11/29 13:48:15;;;;;;;;;;;;;;;;;;5096413;28;20008;-78
2021/11/29 13:50:41;;;;;;;;;;;;;;;;;;5085024;28;19962;-78
2021/11/29 13:53:08;;;;;;;;;;;;;;;;;;5075331;28;20369;-77
2021/11/29 13:55:34;;;;;;;;;;;;;;;;;;5075075;28;20057;-77
2021/11/29 13:58:15;;;;;;;;;;;;;;;;;;5075038;28;19916;-78
2021/11/29 14:00:41;;;;;;;;;;;;;;;;;;5074474;28;20011;-78
2021/11/29 14:03:10;;;;;;;;;;;;;;;;;;5074801;28;19920;-77
2021/11/29 14:05:41;;;;;;;;;;;;;;;;;;5078858;28;19973;-77
2021/11/29 14:08:08;;;;;;;;;;;;;;;;;;5084990;28;19916;-78
2021/11/29 14:11:02;;;;;;;;;;;;;;;;;;5084140;28;19979;-77
2021/11/29 14:13:30;;;;;;;;;;;;;;;;;;5069954;28;19916;-77
2021/11/29 14:15:57;;;;;;;;;;;;;;;;;;5081784;28;19983;-77
2021/11/29 14:18:33;;;;;;;;;;;;;;;;;;5066553;28;19920;-77
2021/11/29 14:21:07;;;;;;;;;;;;;;;;;;5086136;28;19922;-77
2021/11/29 14:23:32;;;;;;;;;;;;;;;;;;5088909;28;19999;-77
2021/11/29 14:25:58;;;;;;;;;;;;;;;;;;5086484;28;20011;-77
2021/11/29 14:28:23;;;;;;;;;;;;;;;;;;5088239;28;20381;-77
2021/11/29 14:30:48;;;;;;;;;;;;;;;;;;5087276;28;19947;-77
2021/11/29 14:33:14;;;;;;;;;;;;;;;;;;5088954;28;19924;-77
2021/11/29 14:35:39;;;;;;;;;;;;;;;;;;5087731;28;19985;-77
2021/11/29 14:38:04;;;;;;;;;;;;;;;;;;5087018;28;20007;-77
2021/11/29 14:40:30;;;;;;;;;;;;;;;;;;5086622;28;19916;-77
2021/11/29 14:42:55;;;;;;;;;;;;;;;;;;5088930;28;19924;-77
2021/11/29 14:45:22;;;;;;;;;;;;;;;;;;5084541;28;19964;-77
2021/11/29 14:47:50;;;;;;;;;;;;;;;;;;5084142;28;19939;-77
2021/11/29 14:50:26;;;;;;;;;;;;;;;;;;5076345;28;19940;-77
2021/11/29 14:52:51;;;;;;;;;;;;;;;;;;5085696;28;19916;-78
2021/11/29 14:55:21;;;;;;;;;;;;;;;;;;5097396;28;20453;-76
2021/11/29 14:57:46;;;;;;;;;;;;;;;;;;5096749;28;20491;-77
2021/11/29 15:00:12;;;;;;;;;;;;;;;;;;5098668;28;19916;-77
2021/11/29 15:02:37;;;;;;;;;;;;;;;;;;5097779;28;19966;-78
2021/11/29 15:05:05;;;;;;;;;;;;;;;;;;5100247;28;19959;-78
2021/11/29 15:07:31;;;;;;;;;;;;;;;;;;5098278;28;19923;-80
2021/11/29 15:09:59;;;;;;;;;;;;;;;;;;5096844;28;19922;-77
2021/11/29 15:12:33;;;;;;;;;;;;;;;;;;5096238;28;19916;-77
2021/11/29 15:14:59;;;;;;;;;;;;;;;;;;5098011;28;19923;-76
2021/11/29 15:17:26;;;;;;;;;;;;;;;;;;5097833;28;19947;-75
2021/11/29 15:19:52;;;;;;;;;;;;;;;;;;5096626;28;19961;-77
2021/11/29 15:22:19;;;;;;;;;;;;;;;;;;5096973;28;20289;-77
2021/11/29 15:24:48;;;;;;;;;;;;;;;;;;5098392;28;20014;-76
2021/11/29 15:27:20;;;;;;;;;;;;;;;;;;5098992;28;19916;-76
2021/11/29 15:29:47;;;;;;;;;;;;;;;;;;5098326;28;20366;-79
2021/11/29 15:32:17;;;;;;;;;;;;;;;;;;5103316;28;19916;-79
2021/11/29 15:35:05;;;;;;;;;;;;;;;;;;5103408;28;19920;-79
2021/11/29 15:37:31;;;;;;;;;;;;;;;;;;5100939;28;19916;-78
2021/11/29 15:40:16;;;;;;;;;;;;;;;;;;5099048;28;19926;-77
2021/11/29 15:42:41;;;;;;;;;;;;;;;;;;5099943;28;19923;-77
2021/11/29 15:45:09;;;;;;;;;;;;;;;;;;5097375;28;19924;-76
2021/11/29 15:47:35;;;;;;;;;;;;;;;;;;5100382;28;20333;-79
2021/11/29 15:50:00;;;;;;;;;;;;;;;;;;5105566;28;19916;-82
2021/11/29 15:52:25;;;;;;;;;;;;;;;;;;5103858;28;19980;-82
2021/11/29 15:54:51;;;;;;;;;;;;;;;;;;5100901;28;19916;-78
2021/11/29 15:57:16;;;;;;;;;;;;;;;;;;5099832;28;19920;-78
2021/11/29 15:59:41;;;;;;;;;;;;;;;;;;5097218;28;19920;-80
2021/11/29 16:02:06;;;;;;;;;;;;;;;;;;5099497;28;20010;-78
2021/11/29 16:04:33;;;;;;;;;;;;;;;;;;5099107;28;19938;-80
2021/11/29 16:06:59;;;;;;;;;;;;;;;;;;5103458;28;19955;-79
2021/11/29 16:09:24;;;;;;;;;;;;;;;;;;5126923;28;20233;-80
2021/11/29 16:11:49;;;;;;;;;;;;;;;;;;5128064;28;19900;-80
2021/11/29 16:14:20;;;;;;;;;;;;;;;;;;5123293;28;20393;-79
2021/11/29 16:16:48;;;;;;;;;;;;;;;;;;5126635;28;19946;-78
2021/11/29 16:19:15;;;;;;;;;;;;;;;;;;5110343;28;19916;-79
2021/11/29 16:21:40;;;;;;;;;;;;;;;;;;5105245;28;19923;-78
2021/11/29 16:24:06;;;;;;;;;;;;;;;;;;5099212;28;20286;-80
2021/11/29 16:26:32;;;;;;;;;;;;;;;;;;5080020;28;19969;-76
2021/11/29 16:28:57;;;;;;;;;;;;;;;;;;5076251;28;20316;-77
2021/11/29 16:31:22;;;;;;;;;;;;;;;;;;5078375;28;19924;-78
2021/11/29 16:33:48;;;;;;;;;;;;;;;;;;5077474;28;19917;-80
2021/11/29 16:36:14;;;;;;;;;;;;;;;;;;5080970;28;19999;-80
2021/11/29 16:38:43;;;;;;;;;;;;;;;;;;5082735;28;19970;-80
2021/11/29 16:41:12;;;;;;;;;;;;;;;;;;5078809;28;19920;-82
2021/11/29 16:43:38;;;;;;;;;;;;;;;;;;5083202;28;19920;-81